sim
Sign-in with your pilot id or email,
or register
Callsign
Passwort

Schedule Details

Flight Number: EWG9552
Departure: Dusseldorf International Airport (EDDL) at 07:05
Arrival: Fuerteventura Airport (GCFV) at 11:40
Route: Eurowings Passenger Schedule. Enter filed route here before submitting Pirep.

Weather Information
Getting current METAR information for EDDL 160320Z 15014KT CAVOK 07/00 Q1026 NOSIG
Getting current METAR information for GCFV 160300Z AUTO 27006KT 9999 NCD 13/11 Q1017

Schedule Frequency

Route Map